createdAt,value
2023-04-28T00:03:14.435Z,96382.13
2023-04-28T00:08:17.265Z,96384.59
2023-04-28T00:13:19.891Z,96387.19
2023-04-28T00:18:23.173Z,96398.91
2023-04-28T00:23:25.965Z,96369.44
2023-04-28T00:33:34.666Z,96396.22
2023-04-28T00:38:37.332Z,96408.66
2023-04-28T00:43:47.806Z,96427.50
2023-04-28T00:48:50.723Z,96423.09
2023-04-28T00:53:54.065Z,96417.84
2023-04-28T00:58:56.674Z,96407.09
2023-04-28T01:03:59.640Z,96414.84
2023-04-28T01:09:01.844Z,96419.91
2023-04-28T01:14:04.823Z,96423.47
2023-04-28T01:19:19.951Z,96425.41
2023-04-28T01:24:22.696Z,96455.22
2023-04-28T01:29:26.005Z,96427.53
2023-04-28T01:34:29.444Z,96440.22
2023-04-28T01:39:32.098Z,96452.69
2023-04-28T01:44:35.253Z,96452.38
2023-04-28T01:49:37.866Z,96444.09
2023-04-28T01:54:43.736Z,96449.53
2023-04-28T01:59:46.386Z,96451.38
2023-04-28T02:04:49.076Z,96474.25
2023-04-28T02:09:51.697Z,96470.59
2023-04-28T02:14:54.260Z,96478.63
2023-04-28T02:19:57.146Z,96469.59
2023-04-28T02:24:59.685Z,96494.69
2023-04-28T02:30:02.992Z,96460.44
2023-04-28T02:35:06.029Z,96491.72
2023-04-28T02:40:08.871Z,96484.59
2023-04-28T02:45:12.202Z,96498.28
2023-04-28T02:50:15.512Z,96515.31
2023-04-28T02:55:24.337Z,96500.16
2023-04-28T03:00:28.470Z,96518.00
2023-04-28T03:05:31.314Z,96531.69
2023-04-28T03:10:33.903Z,96521.41
2023-04-28T03:15:37.083Z,96531.31
2023-04-28T03:20:39.902Z,96532.28
2023-04-28T03:25:42.524Z,96536.91
2023-04-28T03:30:45.369Z,96542.31
2023-04-28T03:35:48.118Z,96549.13
2023-04-28T03:40:50.565Z,96576.50
2023-04-28T03:45:56.266Z,96561.56
2023-04-28T03:51:01.302Z,96582.97
2023-04-28T03:56:04.013Z,96572.03
2023-04-28T04:01:06.989Z,96585.63
2023-04-28T04:06:09.500Z,96601.41
2023-04-28T04:11:12.188Z,96599.59
2023-04-28T04:16:18.002Z,96610.53
2023-04-28T04:21:20.780Z,96607.75
2023-04-28T04:26:26.026Z,96617.28
2023-04-28T04:31:30.174Z,96619.56
2023-04-28T04:36:33.227Z,96632.53
2023-04-28T04:41:36.497Z,96616.56
2023-04-28T04:47:02.977Z,96617.13
2023-04-28T04:52:07.392Z,96641.75
2023-04-28T04:57:11.989Z,96642.91
2023-04-28T05:02:32.510Z,96646.06
2023-04-28T05:07:36.922Z,96670.41
2023-04-28T05:12:39.830Z,96651.44
2023-04-28T05:17:42.706Z,96654.91
2023-04-28T05:22:45.066Z,96641.28
2023-04-28T05:27:48.284Z,96668.75
2023-04-28T05:32:50.699Z,96666.91
2023-04-28T05:37:53.545Z,96660.09
2023-04-28T05:42:56.056Z,96634.63
2023-04-28T05:47:58.654Z,96659.66
2023-04-28T05:53:01.317Z,96669.06
2023-04-28T05:58:04.756Z,96677.47
2023-04-28T06:03:11.616Z,96681.28
2023-04-28T06:08:14.672Z,96691.91
2023-04-28T06:13:17.429Z,96698.78
2023-04-28T06:18:20.090Z,96681.38
2023-04-28T06:23:22.773Z,96684.34
2023-04-28T06:28:26.712Z,96686.59
2023-04-28T06:33:29.429Z,96694.75
2023-04-28T06:38:32.140Z,96703.88
2023-04-28T06:43:35.188Z,96709.56
2023-04-28T06:48:43.679Z,96692.63
2023-04-28T06:53:45.810Z,96702.69
2023-04-28T06:58:48.476Z,96698.91
2023-04-28T07:03:51.120Z,96680.47
2023-04-28T07:08:54.322Z,96704.03
2023-04-28T07:13:56.597Z,96683.22
2023-04-28T07:18:59.240Z,96703.50
2023-04-28T07:24:02.248Z,96691.72
2023-04-28T07:29:04.960Z,96697.47
2023-04-28T07:34:07.510Z,96687.19
2023-04-28T07:39:10.126Z,96706.47
2023-04-28T07:44:12.927Z,96691.91
2023-04-28T07:49:15.409Z,96695.88
2023-04-28T07:54:18.460Z,96685.94
2023-04-28T07:59:21.500Z,96694.22
2023-04-28T08:04:24.408Z,96656.56
2023-04-28T08:09:27.483Z,96689.72
2023-04-28T08:14:29.781Z,96675.06
2023-04-28T08:19:32.414Z,96667.66
2023-04-28T08:24:34.790Z,96667.00
2023-04-28T08:29:37.715Z,96664.94
2023-04-28T08:34:40.349Z,96641.06
2023-04-28T08:39:42.487Z,96640.19
2023-04-28T08:44:46.420Z,96626.16
2023-04-28T08:49:49.874Z,96625.38
2023-04-28T08:54:52.984Z,96615.88
2023-04-28T08:59:57.313Z,96624.22
2023-04-28T09:04:59.758Z,96633.44
2023-04-28T09:10:26.767Z,96619.91
2023-04-28T09:15:37.772Z,96618.34
2023-04-28T09:20:40.461Z,96618.03
2023-04-28T09:26:03.242Z,96607.06
2023-04-28T09:31:05.963Z,96578.59
2023-04-28T09:36:08.880Z,96559.03
2023-04-28T09:41:11.600Z,96568.56
2023-04-28T09:46:29.977Z,96586.00
2023-04-28T09:51:32.794Z,96573.81
2023-04-28T09:56:41.917Z,96572.16
2023-04-28T10:01:45.381Z,96563.34
2023-04-28T10:06:48.580Z,96552.72
2023-04-28T10:11:51.568Z,96542.50
2023-04-28T10:16:55.161Z,96536.63
2023-04-28T10:22:18.914Z,96558.97
2023-04-28T10:27:22.058Z,96534.28
2023-04-28T10:32:29.476Z,96539.91
2023-04-28T10:38:05.971Z,96535.06
2023-04-28T10:43:10.514Z,96508.72
2023-04-28T10:48:13.244Z,96493.97
2023-04-28T10:53:15.312Z,96518.69
2023-04-28T10:58:20.589Z,96512.72
2023-04-28T11:03:49.509Z,96497.47
2023-04-28T11:08:52.288Z,96510.75
2023-04-28T11:14:22.494Z,96509.31
2023-04-28T11:19:26.885Z,96514.72
2023-04-28T11:24:31.242Z,96508.66
2023-04-28T11:29:43.088Z,96521.66
2023-04-28T11:34:52.580Z,96512.69
2023-04-28T11:39:55.450Z,96503.06
2023-04-28T11:44:58.009Z,96490.56
2023-04-28T11:50:01.750Z,96505.09
2023-04-28T11:55:05.211Z,96506.78
2023-04-28T12:00:19.766Z,96506.41
2023-04-28T12:05:22.866Z,96495.75
2023-04-28T12:10:25.630Z,96474.78
2023-04-28T12:15:41.700Z,96464.53
2023-04-28T12:20:44.442Z,96453.84
2023-04-28T12:25:48.582Z,96467.66
2023-04-28T12:30:51.276Z,96442.09
2023-04-28T12:35:57.962Z,96441.38
2023-04-28T12:41:01.207Z,96447.44
2023-04-28T12:46:04.602Z,96442.03
2023-04-28T12:51:07.279Z,96434.53
2023-04-28T12:56:10.524Z,96431.09
2023-04-28T13:01:13.683Z,96431.56
2023-04-28T13:06:16.466Z,96409.97
2023-04-28T13:11:22.615Z,96419.25
2023-04-28T13:16:29.017Z,96413.13
2023-04-28T13:21:32.165Z,96406.63
2023-04-28T13:26:34.812Z,96407.44
2023-04-28T13:31:37.482Z,96418.25
2023-04-28T13:36:40.112Z,96412.19
2023-04-28T13:41:42.973Z,96419.84
2023-04-28T13:46:46.305Z,96406.75
2023-04-28T13:51:48.857Z,96402.53
2023-04-28T13:56:51.527Z,96406.81
2023-04-28T14:01:54.087Z,96418.50
2023-04-28T14:06:56.829Z,96421.72
2023-04-28T14:11:59.410Z,96404.63
2023-04-28T14:17:04.947Z,96409.31
2023-04-28T14:22:07.705Z,96390.34
2023-04-28T14:27:10.410Z,96391.97
2023-04-28T14:32:13.820Z,96401.66
2023-04-28T14:37:16.615Z,96409.22
2023-04-28T14:42:20.313Z,96403.75
2023-04-28T14:47:23.355Z,96392.78
2023-04-28T14:52:30.743Z,96400.78
2023-04-28T14:57:34.873Z,96383.00
2023-04-28T15:02:37.928Z,96375.53
2023-04-28T15:07:40.725Z,96370.25
2023-04-28T15:12:43.501Z,96378.25
2023-04-28T15:17:46.127Z,96398.88
2023-04-28T15:22:48.930Z,96398.97
2023-04-28T15:27:53.017Z,96403.28
2023-04-28T15:32:55.724Z,96383.31
2023-04-28T15:37:58.381Z,96385.72
2023-04-28T15:43:00.882Z,96384.91
2023-04-28T15:48:05.242Z,96384.25
2023-04-28T15:53:08.388Z,96387.31
2023-04-28T15:58:11.172Z,96361.75
2023-04-28T16:03:13.887Z,96369.63
2023-04-28T16:08:16.585Z,96373.13
2023-04-28T16:13:19.673Z,96373.19
2023-04-28T16:18:22.048Z,96380.91
2023-04-28T16:23:25.015Z,96380.81
2023-04-28T16:28:27.834Z,96383.38
2023-04-28T16:33:30.872Z,96367.78
2023-04-28T16:38:33.427Z,96357.63
2023-04-28T16:43:38.357Z,96373.84
2023-04-28T16:48:40.992Z,96375.84
2023-04-28T16:53:43.230Z,96399.22
2023-04-28T16:58:45.841Z,96401.63
2023-04-28T17:03:51.168Z,96403.22
2023-04-28T17:08:54.062Z,96391.03
2023-04-28T17:13:57.252Z,96385.41
2023-04-28T17:19:00.553Z,96402.69
2023-04-28T17:24:03.146Z,96422.38
2023-04-28T17:29:06.009Z,96431.09
2023-04-28T17:34:08.593Z,96431.53
2023-04-28T17:39:12.728Z,96440.63
2023-04-28T17:44:16.947Z,96438.78
2023-04-28T17:49:19.514Z,96441.53
2023-04-28T17:54:22.114Z,96449.31
2023-04-28T17:59:24.693Z,96460.66
2023-04-28T18:04:27.316Z,96443.84
2023-04-28T18:09:31.969Z,96465.78
2023-04-28T18:14:34.541Z,96469.88
2023-04-28T18:19:37.176Z,96485.81
2023-04-28T18:24:39.824Z,96488.59
2023-04-28T18:29:42.015Z,96481.84
2023-04-28T18:34:44.655Z,96498.25
2023-04-28T18:39:47.215Z,96508.41
2023-04-28T18:44:54.398Z,96503.91
2023-04-28T18:49:57.008Z,96493.59
2023-04-28T18:54:59.974Z,96521.06
2023-04-28T19:00:02.047Z,96508.97
2023-04-28T19:05:06.025Z,96523.75
2023-04-28T19:10:09.236Z,96513.31
2023-04-28T19:15:11.336Z,96495.56
2023-04-28T19:20:13.794Z,96509.47
2023-04-28T19:25:16.875Z,96484.28
2023-04-28T19:30:19.452Z,96491.19
2023-04-28T19:35:21.851Z,96495.78
2023-04-28T19:40:26.480Z,96489.59
2023-04-28T19:45:28.944Z,96502.78
2023-04-28T19:50:31.931Z,96521.00
2023-04-28T19:55:34.467Z,96503.22
2023-04-28T20:00:37.386Z,96526.41
2023-04-28T20:05:40.217Z,96512.81
2023-04-28T20:10:43.029Z,96511.41
2023-04-28T20:15:45.603Z,96515.69
2023-04-28T20:20:56.311Z,96494.00
2023-04-28T20:25:59.647Z,96507.84
2023-04-28T20:31:02.227Z,96502.84
2023-04-28T20:36:05.781Z,96496.81
2023-04-28T20:41:08.897Z,96521.16
2023-04-28T20:46:13.709Z,96505.06
2023-04-28T20:51:17.027Z,96486.94
2023-04-28T20:56:19.673Z,96509.75
2023-04-28T21:01:22.353Z,96520.03
2023-04-28T21:06:24.679Z,96505.31
2023-04-28T21:11:27.387Z,96509.78
2023-04-28T21:16:33.185Z,96527.31
2023-04-28T21:21:35.831Z,96527.59
2023-04-28T21:26:38.532Z,96522.69
2023-04-28T21:31:44.549Z,96520.06
2023-04-28T21:36:47.378Z,96520.31
2023-04-28T21:41:49.952Z,96505.84
2023-04-28T21:46:52.845Z,96492.41
2023-04-28T21:51:55.472Z,96498.50
2023-04-28T21:56:58.041Z,96497.81
2023-04-28T22:02:03.391Z,96508.66
2023-04-28T22:07:06.721Z,96474.25
2023-04-28T22:12:09.474Z,96483.22
2023-04-28T22:17:12.223Z,96506.56
2023-04-28T22:22:14.821Z,96476.50
2023-04-28T22:27:17.857Z,96485.19
2023-04-28T22:32:20.188Z,96472.31
2023-04-28T22:37:22.864Z,96473.72
2023-04-28T22:42:24.971Z,96433.66
2023-04-28T22:47:27.515Z,96458.63
2023-04-28T22:52:30.141Z,96454.22
2023-04-28T22:57:32.839Z,96458.84
2023-04-28T23:02:35.096Z,96440.81
2023-04-28T23:07:37.658Z,96438.03
2023-04-28T23:12:40.277Z,96418.31
2023-04-28T23:17:43.921Z,96436.66
2023-04-28T23:22:46.268Z,96445.50
2023-04-28T23:27:49.338Z,96420.59
2023-04-28T23:32:51.749Z,96430.78
2023-04-28T23:37:54.424Z,96429.22
2023-04-28T23:42:57.092Z,96442.00
2023-04-28T23:47:59.917Z,96415.56
2023-04-28T23:53:02.811Z,96419.84
2023-04-28T23:58:05.350Z,96439.91
